sensor_id;sensor_type;location;lat;lon;timestamp;temperature;humidity
61916;DHT22;47868;51.326;6.550;2022-08-02T00:00:46;19.90;99.90
61916;DHT22;47868;51.326;6.550;2022-08-02T00:03:12;19.90;99.90
61916;DHT22;47868;51.326;6.550;2022-08-02T00:05:37;19.90;99.90
61916;DHT22;47868;51.326;6.550;2022-08-02T00:08:04;19.80;99.90
61916;DHT22;47868;51.326;6.550;2022-08-02T00:10:30;19.80;99.90
61916;DHT22;47868;51.326;6.550;2022-08-02T00:12:57;19.80;99.90
61916;DHT22;47868;51.326;6.550;2022-08-02T00:15:22;19.80;99.90
61916;DHT22;47868;51.326;6.550;2022-08-02T00:17:48;19.70;99.90
61916;DHT22;47868;51.326;6.550;2022-08-02T00:20:14;19.80;99.90
61916;DHT22;47868;51.326;6.550;2022-08-02T00:22:40;19.70;99.90
61916;DHT22;47868;51.326;6.550;2022-08-02T00:25:09;19.70;99.90
61916;DHT22;47868;51.326;6.550;2022-08-02T00:27:34;19.70;99.90
61916;DHT22;47868;51.326;6.550;2022-08-02T00:30:00;19.70;99.90
61916;DHT22;47868;51.326;6.550;2022-08-02T00:32:26;19.70;99.90
61916;DHT22;47868;51.326;6.550;2022-08-02T00:34:51;19.70;99.90
61916;DHT22;47868;51.326;6.550;2022-08-02T00:37:17;19.70;99.90
61916;DHT22;47868;51.326;6.550;2022-08-02T00:39:43;19.60;99.90
61916;DHT22;47868;51.326;6.550;2022-08-02T00:42:09;19.60;99.90
61916;DHT22;47868;51.326;6.550;2022-08-02T00:44:37;19.60;99.90
61916;DHT22;47868;51.326;6.550;2022-08-02T00:47:03;19.60;99.90
61916;DHT22;47868;51.326;6.550;2022-08-02T00:49:29;19.50;99.90
61916;DHT22;47868;51.326;6.550;2022-08-02T00:51:55;19.60;99.90
61916;DHT22;47868;51.326;6.550;2022-08-02T00:54:20;19.50;99.90
61916;DHT22;47868;51.326;6.550;2022-08-02T00:56:46;19.50;99.90
61916;DHT22;47868;51.326;6.550;2022-08-02T00:59:12;19.50;99.90
61916;DHT22;47868;51.326;6.550;2022-08-02T01:01:37;19.50;99.90
61916;DHT22;47868;51.326;6.550;2022-08-02T01:04:10;19.60;99.90
61916;DHT22;47868;51.326;6.550;2022-08-02T01:06:39;19.50;99.90
61916;DHT22;47868;51.326;6.550;2022-08-02T01:09:06;19.50;99.90
61916;DHT22;47868;51.326;6.550;2022-08-02T01:11:33;19.50;99.90
61916;DHT22;47868;51.326;6.550;2022-08-02T01:14:11;19.40;99.90
61916;DHT22;47868;51.326;6.550;2022-08-02T01:17:28;19.50;99.90
61916;DHT22;47868;51.326;6.550;2022-08-02T01:25:28;19.40;99.90
61916;DHT22;47868;51.326;6.550;2022-08-02T01:30:33;19.30;99.90
61916;DHT22;47868;51.326;6.550;2022-08-02T01:33:02;19.40;99.90
61916;DHT22;47868;51.326;6.550;2022-08-02T01:35:44;19.30;99.90
61916;DHT22;47868;51.326;6.550;2022-08-02T01:38:32;19.30;99.90
61916;DHT22;47868;51.326;6.550;2022-08-02T01:41:01;19.20;99.90
61916;DHT22;47868;51.326;6.550;2022-08-02T01:43:29;19.20;99.90
61916;DHT22;47868;51.326;6.550;2022-08-02T01:45:56;19.20;99.90
61916;DHT22;47868;51.326;6.550;2022-08-02T01:48:25;19.20;99.90
61916;DHT22;47868;51.326;6.550;2022-08-02T01:50:52;19.20;99.90
61916;DHT22;47868;51.326;6.550;2022-08-02T01:53:19;19.20;99.90
61916;DHT22;47868;51.326;6.550;2022-08-02T01:55:49;19.10;99.90
61916;DHT22;47868;51.326;6.550;2022-08-02T01:58:16;19.10;99.90
61916;DHT22;47868;51.326;6.550;2022-08-02T02:00:42;19.00;99.90
61916;DHT22;47868;51.326;6.550;2022-08-02T02:03:14;18.90;99.90
61916;DHT22;47868;51.326;6.550;2022-08-02T02:05:41;18.90;99.90
61916;DHT22;47868;51.326;6.550;2022-08-02T02:08:08;18.90;99.90
61916;DHT22;47868;51.326;6.550;2022-08-02T02:10:37;18.90;99.90
61916;DHT22;47868;51.326;6.550;2022-08-02T02:13:10;18.80;99.90
61916;DHT22;47868;51.326;6.550;2022-08-02T02:15:45;18.80;99.90
61916;DHT22;47868;51.326;6.550;2022-08-02T02:18:23;18.80;99.90
61916;DHT22;47868;51.326;6.550;2022-08-02T02:20:49;18.70;99.90
61916;DHT22;47868;51.326;6.550;2022-08-02T02:23:15;18.70;99.90
61916;DHT22;47868;51.326;6.550;2022-08-02T02:25:42;18.70;99.90
61916;DHT22;47868;51.326;6.550;2022-08-02T02:28:24;18.70;99.90
61916;DHT22;47868;51.326;6.550;2022-08-02T02:31:05;18.70;99.90
61916;DHT22;47868;51.326;6.550;2022-08-02T02:33:34;18.70;99.90
61916;DHT22;47868;51.326;6.550;2022-08-02T02:36:02;18.70;99.90
61916;DHT22;47868;51.326;6.550;2022-08-02T02:38:30;18.80;99.90
61916;DHT22;47868;51.326;6.550;2022-08-02T02:41:00;18.80;99.90
61916;DHT22;47868;51.326;6.550;2022-08-02T02:43:27;18.80;99.90
61916;DHT22;47868;51.326;6.550;2022-08-02T02:45:55;18.70;99.90
61916;DHT22;47868;51.326;6.550;2022-08-02T02:48:22;18.60;99.90
61916;DHT22;47868;51.326;6.550;2022-08-02T02:50:49;18.60;99.90
61916;DHT22;47868;51.326;6.550;2022-08-02T02:53:17;18.70;99.90
61916;DHT22;47868;51.326;6.550;2022-08-02T02:55:45;18.70;99.90
61916;DHT22;47868;51.326;6.550;2022-08-02T02:58:11;18.60;99.90
61916;DHT22;47868;51.326;6.550;2022-08-02T03:00:38;18.60;99.90
61916;DHT22;47868;51.326;6.550;2022-08-02T03:03:23;18.50;99.90
61916;DHT22;47868;51.326;6.550;2022-08-02T03:05:49;18.50;99.90
61916;DHT22;47868;51.326;6.550;2022-08-02T03:08:15;18.40;99.90
61916;DHT22;47868;51.326;6.550;2022-08-02T03:10:44;18.30;99.90
61916;DHT22;47868;51.326;6.550;2022-08-02T03:13:11;18.30;99.90
61916;DHT22;47868;51.326;6.550;2022-08-02T03:15:38;18.30;99.90
61916;DHT22;47868;51.326;6.550;2022-08-02T03:18:05;18.40;99.90
61916;DHT22;47868;51.326;6.550;2022-08-02T03:20:33;18.30;99.90
61916;DHT22;47868;51.326;6.550;2022-08-02T03:22:59;18.30;99.90
61916;DHT22;47868;51.326;6.550;2022-08-02T03:25:24;18.40;99.90
61916;DHT22;47868;51.326;6.550;2022-08-02T03:27:50;18.40;99.90
61916;DHT22;47868;51.326;6.550;2022-08-02T03:30:16;18.50;99.90
61916;DHT22;47868;51.326;6.550;2022-08-02T03:32:44;18.50;99.90
61916;DHT22;47868;51.326;6.550;2022-08-02T03:35:13;18.50;99.90
61916;DHT22;47868;51.326;6.550;2022-08-02T03:37:40;18.40;99.90
61916;DHT22;47868;51.326;6.550;2022-08-02T03:40:08;18.40;99.90
61916;DHT22;47868;51.326;6.550;2022-08-02T03:42:35;18.50;99.90
61916;DHT22;47868;51.326;6.550;2022-08-02T03:45:02;18.40;99.90
61916;DHT22;47868;51.326;6.550;2022-08-02T03:47:29;18.40;99.90
61916;DHT22;47868;51.326;6.550;2022-08-02T03:49:56;18.40;99.90
61916;DHT22;47868;51.326;6.550;2022-08-02T03:52:23;18.40;99.90
61916;DHT22;47868;51.326;6.550;2022-08-02T03:54:50;18.40;99.90
61916;DHT22;47868;51.326;6.550;2022-08-02T03:57:16;18.40;99.90
61916;DHT22;47868;51.326;6.550;2022-08-02T03:59:44;18.50;99.90
61916;DHT22;47868;51.326;6.550;2022-08-02T04:02:11;18.50;99.90
61916;DHT22;47868;51.326;6.550;2022-08-02T04:04:38;18.50;99.90
61916;DHT22;47868;51.326;6.550;2022-08-02T04:07:04;18.50;99.90
61916;DHT22;47868;51.326;6.550;2022-08-02T04:09:30;18.50;99.90
61916;DHT22;47868;51.326;6.550;2022-08-02T04:11:56;18.60;99.90
61916;DHT22;47868;51.326;6.550;2022-08-02T04:14:22;18.50;99.90
61916;DHT22;47868;51.326;6.550;2022-08-02T04:16:51;18.50;99.90
61916;DHT22;47868;51.326;6.550;2022-08-02T04:19:42;18.50;99.90
61916;DHT22;47868;51.326;6.550;2022-08-02T04:22:14;18.50;99.90
61916;DHT22;47868;51.326;6.550;2022-08-02T04:24:46;18.50;99.90
61916;DHT22;47868;51.326;6.550;2022-08-02T04:27:14;18.50;99.90
61916;DHT22;47868;51.326;6.550;2022-08-02T04:29:40;18.60;99.90
61916;DHT22;47868;51.326;6.550;2022-08-02T04:32:07;18.60;99.90
61916;DHT22;47868;51.326;6.550;2022-08-02T04:34:32;18.60;99.90
61916;DHT22;47868;51.326;6.550;2022-08-02T04:36:58;18.60;99.90
61916;DHT22;47868;51.326;6.550;2022-08-02T04:39:25;18.60;99.90
61916;DHT22;47868;51.326;6.550;2022-08-02T04:41:50;18.60;99.90
61916;DHT22;47868;51.326;6.550;2022-08-02T04:44:16;18.70;99.90
61916;DHT22;47868;51.326;6.550;2022-08-02T04:46:43;18.70;99.90
61916;DHT22;47868;51.326;6.550;2022-08-02T04:49:09;18.70;99.90
61916;DHT22;47868;51.326;6.550;2022-08-02T04:51:39;18.70;99.90
61916;DHT22;47868;51.326;6.550;2022-08-02T04:54:06;18.70;99.90
61916;DHT22;47868;51.326;6.550;2022-08-02T04:56:32;18.70;99.90
61916;DHT22;47868;51.326;6.550;2022-08-02T04:58:58;18.80;99.90
61916;DHT22;47868;51.326;6.550;2022-08-02T05:01:24;18.80;99.90
61916;DHT22;47868;51.326;6.550;2022-08-02T05:03:49;18.90;99.90
61916;DHT22;47868;51.326;6.550;2022-08-02T05:06:15;19.00;99.90
61916;DHT22;47868;51.326;6.550;2022-08-02T05:08:41;19.10;99.90
61916;DHT22;47868;51.326;6.550;2022-08-02T05:11:06;19.10;99.90
61916;DHT22;47868;51.326;6.550;2022-08-02T05:13:32;19.10;99.90
61916;DHT22;47868;51.326;6.550;2022-08-02T05:15:58;19.10;99.90
61916;DHT22;47868;51.326;6.550;2022-08-02T05:18:26;19.10;99.90
61916;DHT22;47868;51.326;6.550;2022-08-02T05:20:53;19.20;99.90
61916;DHT22;47868;51.326;6.550;2022-08-02T05:23:19;19.20;99.90
61916;DHT22;47868;51.326;6.550;2022-08-02T05:25:45;19.20;99.90
61916;DHT22;47868;51.326;6.550;2022-08-02T05:28:10;19.10;99.90
61916;DHT22;47868;51.326;6.550;2022-08-02T05:30:36;19.20;99.90
61916;DHT22;47868;51.326;6.550;2022-08-02T05:33:01;19.20;99.90
61916;DHT22;47868;51.326;6.550;2022-08-02T05:35:28;19.20;99.90
61916;DHT22;47868;51.326;6.550;2022-08-02T05:37:54;19.20;99.90
61916;DHT22;47868;51.326;6.550;2022-08-02T05:40:19;19.20;99.90
61916;DHT22;47868;51.326;6.550;2022-08-02T05:42:45;19.10;99.90
61916;DHT22;47868;51.326;6.550;2022-08-02T05:45:11;19.20;99.90
61916;DHT22;47868;51.326;6.550;2022-08-02T05:47:37;19.20;99.90
61916;DHT22;47868;51.326;6.550;2022-08-02T05:50:05;19.20;99.90
61916;DHT22;47868;51.326;6.550;2022-08-02T05:52:51;19.30;99.90
61916;DHT22;47868;51.326;6.550;2022-08-02T06:00:30;19.40;99.90
61916;DHT22;47868;51.326;6.550;2022-08-02T06:05:39;19.50;99.90
61916;DHT22;47868;51.326;6.550;2022-08-02T06:08:06;19.60;99.90
61916;DHT22;47868;51.326;6.550;2022-08-02T06:10:36;19.60;99.90
61916;DHT22;47868;51.326;6.550;2022-08-02T06:13:11;19.70;99.90
61916;DHT22;47868;51.326;6.550;2022-08-02T06:15:39;19.70;99.90
61916;DHT22;47868;51.326;6.550;2022-08-02T06:18:05;19.80;99.90
61916;DHT22;47868;51.326;6.550;2022-08-02T06:20:32;19.80;99.90
61916;DHT22;47868;51.326;6.550;2022-08-02T06:23:06;19.80;99.90
61916;DHT22;47868;51.326;6.550;2022-08-02T06:25:33;19.90;99.90
61916;DHT22;47868;51.326;6.550;2022-08-02T06:28:02;20.00;99.90
61916;DHT22;47868;51.326;6.550;2022-08-02T06:43:42;20.30;99.90
61916;DHT22;47868;51.326;6.550;2022-08-02T06:46:09;20.30;99.90
61916;DHT22;47868;51.326;6.550;2022-08-02T06:48:34;20.40;99.90
61916;DHT22;47868;51.326;6.550;2022-08-02T06:51:04;20.40;99.90
61916;DHT22;47868;51.326;6.550;2022-08-02T06:53:30;20.40;99.90
61916;DHT22;47868;51.326;6.550;2022-08-02T06:55:56;20.50;99.90
61916;DHT22;47868;51.326;6.550;2022-08-02T06:58:22;20.50;99.90
61916;DHT22;47868;51.326;6.550;2022-08-02T07:00:48;20.60;99.90
61916;DHT22;47868;51.326;6.550;2022-08-02T07:03:14;20.70;99.90
61916;DHT22;47868;51.326;6.550;2022-08-02T07:05:40;20.70;99.90
61916;DHT22;47868;51.326;6.550;2022-08-02T07:08:06;20.80;99.90
61916;DHT22;47868;51.326;6.550;2022-08-02T07:10:32;20.80;99.90
61916;DHT22;47868;51.326;6.550;2022-08-02T07:12:57;20.90;99.90
61916;DHT22;47868;51.326;6.550;2022-08-02T07:15:23;21.00;99.90
61916;DHT22;47868;51.326;6.550;2022-08-02T07:17:49;21.10;99.90
61916;DHT22;47868;51.326;6.550;2022-08-02T07:20:14;21.10;99.90
61916;DHT22;47868;51.326;6.550;2022-08-02T07:22:41;21.20;99.90
61916;DHT22;47868;51.326;6.550;2022-08-02T07:25:07;21.20;99.90
61916;DHT22;47868;51.326;6.550;2022-08-02T07:27:33;21.30;99.90
61916;DHT22;47868;51.326;6.550;2022-08-02T07:29:59;21.40;99.90
61916;DHT22;47868;51.326;6.550;2022-08-02T07:32:29;21.40;99.90
61916;DHT22;47868;51.326;6.550;2022-08-02T07:34:56;21.50;99.90
61916;DHT22;47868;51.326;6.550;2022-08-02T07:37:24;21.50;99.90
61916;DHT22;47868;51.326;6.550;2022-08-02T07:39:50;21.50;99.90
61916;DHT22;47868;51.326;6.550;2022-08-02T07:42:16;21.60;99.90
61916;DHT22;47868;51.326;6.550;2022-08-02T07:44:42;21.70;99.90
61916;DHT22;47868;51.326;6.550;2022-08-02T07:47:08;21.70;99.90
61916;DHT22;47868;51.326;6.550;2022-08-02T07:49:33;21.80;99.90
61916;DHT22;47868;51.326;6.550;2022-08-02T07:51:59;21.90;99.90
61916;DHT22;47868;51.326;6.550;2022-08-02T07:54:24;22.00;99.90
61916;DHT22;47868;51.326;6.550;2022-08-02T07:56:50;22.10;99.90
61916;DHT22;47868;51.326;6.550;2022-08-02T07:59:18;22.10;99.90
61916;DHT22;47868;51.326;6.550;2022-08-02T08:01:43;22.20;99.90
61916;DHT22;47868;51.326;6.550;2022-08-02T08:04:09;22.30;99.90
61916;DHT22;47868;51.326;6.550;2022-08-02T08:06:35;22.40;99.90
61916;DHT22;47868;51.326;6.550;2022-08-02T08:09:00;22.50;99.90
61916;DHT22;47868;51.326;6.550;2022-08-02T08:11:26;22.50;99.90
61916;DHT22;47868;51.326;6.550;2022-08-02T08:13:52;22.70;99.90
61916;DHT22;47868;51.326;6.550;2022-08-02T08:16:17;22.70;99.90
61916;DHT22;47868;51.326;6.550;2022-08-02T08:18:43;22.40;99.90
61916;DHT22;47868;51.326;6.550;2022-08-02T08:21:11;22.90;99.90
61916;DHT22;47868;51.326;6.550;2022-08-02T08:23:37;22.90;99.90
61916;DHT22;47868;51.326;6.550;2022-08-02T08:26:03;23.00;99.90
61916;DHT22;47868;51.326;6.550;2022-08-02T08:28:29;23.00;99.90
61916;DHT22;47868;51.326;6.550;2022-08-02T08:30:55;23.00;99.90
61916;DHT22;47868;51.326;6.550;2022-08-02T08:33:21;23.10;99.90
61916;DHT22;47868;51.326;6.550;2022-08-02T08:35:46;23.10;99.90
61916;DHT22;47868;51.326;6.550;2022-08-02T08:38:13;23.20;99.90
61916;DHT22;47868;51.326;6.550;2022-08-02T08:40:40;23.30;99.90
61916;DHT22;47868;51.326;6.550;2022-08-02T08:43:06;23.40;99.90
61916;DHT22;47868;51.326;6.550;2022-08-02T08:45:32;23.50;99.90
61916;DHT22;47868;51.326;6.550;2022-08-02T08:48:06;23.60;99.90
61916;DHT22;47868;51.326;6.550;2022-08-02T08:50:34;23.90;99.90
61916;DHT22;47868;51.326;6.550;2022-08-02T08:53:06;24.10;99.90
61916;DHT22;47868;51.326;6.550;2022-08-02T08:55:34;24.30;99.90
61916;DHT22;47868;51.326;6.550;2022-08-02T08:58:00;24.60;99.90
61916;DHT22;47868;51.326;6.550;2022-08-02T09:00:27;24.80;99.90
61916;DHT22;47868;51.326;6.550;2022-08-02T09:02:53;25.00;99.90
61916;DHT22;47868;51.326;6.550;2022-08-02T09:05:19;25.20;99.90
61916;DHT22;47868;51.326;6.550;2022-08-02T09:07:50;25.40;99.90
61916;DHT22;47868;51.326;6.550;2022-08-02T09:15:40;25.60;99.90
61916;DHT22;47868;51.326;6.550;2022-08-02T09:18:07;25.50;99.90
61916;DHT22;47868;51.326;6.550;2022-08-02T09:20:35;25.60;99.90
61916;DHT22;47868;51.326;6.550;2022-08-02T09:23:15;25.60;99.90
61916;DHT22;47868;51.326;6.550;2022-08-02T09:25:40;25.50;99.90
61916;DHT22;47868;51.326;6.550;2022-08-02T09:28:06;25.60;99.90
61916;DHT22;47868;51.326;6.550;2022-08-02T09:30:33;25.70;99.90
61916;DHT22;47868;51.326;6.550;2022-08-02T09:33:07;25.70;99.90
61916;DHT22;47868;51.326;6.550;2022-08-02T09:35:38;25.80;99.90
61916;DHT22;47868;51.326;6.550;2022-08-02T09:38:13;25.80;99.90
61916;DHT22;47868;51.326;6.550;2022-08-02T09:40:40;26.00;99.90
61916;DHT22;47868;51.326;6.550;2022-08-02T09:43:07;26.00;99.90
61916;DHT22;47868;51.326;6.550;2022-08-02T09:45:34;26.10;99.90
61916;DHT22;47868;51.326;6.550;2022-08-02T09:48:07;26.20;99.90
61916;DHT22;47868;51.326;6.550;2022-08-02T09:50:38;26.20;99.90
61916;DHT22;47868;51.326;6.550;2022-08-02T09:53:05;26.30;99.90
61916;DHT22;47868;51.326;6.550;2022-08-02T09:55:31;26.40;99.90
61916;DHT22;47868;51.326;6.550;2022-08-02T09:57:57;26.50;99.90
61916;DHT22;47868;51.326;6.550;2022-08-02T10:00:22;26.50;99.90
61916;DHT22;47868;51.326;6.550;2022-08-02T10:03:08;26.50;99.90
61916;DHT22;47868;51.326;6.550;2022-08-02T10:05:48;26.40;99.90
61916;DHT22;47868;51.326;6.550;2022-08-02T10:08:14;26.40;99.90
61916;DHT22;47868;51.326;6.550;2022-08-02T10:10:41;26.50;99.90
61916;DHT22;47868;51.326;6.550;2022-08-02T10:13:08;26.50;99.90
61916;DHT22;47868;51.326;6.550;2022-08-02T10:15:35;26.50;99.90
61916;DHT22;47868;51.326;6.550;2022-08-02T10:18:01;26.50;99.90
61916;DHT22;47868;51.326;6.550;2022-08-02T10:20:28;26.50;99.90
61916;DHT22;47868;51.326;6.550;2022-08-02T10:22:56;26.50;99.40
61916;DHT22;47868;51.326;6.550;2022-08-02T10:25:23;26.70;99.40
61916;DHT22;47868;51.326;6.550;2022-08-02T10:27:49;26.80;98.60
61916;DHT22;47868;51.326;6.550;2022-08-02T10:30:15;26.90;98.60
61916;DHT22;47868;51.326;6.550;2022-08-02T10:32:42;27.50;98.40
61916;DHT22;47868;51.326;6.550;2022-08-02T10:35:13;26.90;98.20
61916;DHT22;47868;51.326;6.550;2022-08-02T10:37:40;27.00;96.80
61916;DHT22;47868;51.326;6.550;2022-08-02T10:40:09;27.20;95.30
61916;DHT22;47868;51.326;6.550;2022-08-02T10:42:49;27.40;95.10
61916;DHT22;47868;51.326;6.550;2022-08-02T10:45:20;27.50;95.80
61916;DHT22;47868;51.326;6.550;2022-08-02T10:48:11;27.70;94.50
61916;DHT22;47868;51.326;6.550;2022-08-02T10:53:29;27.90;94.70
61916;DHT22;47868;51.326;6.550;2022-08-02T10:55:57;28.00;95.20
61916;DHT22;47868;51.326;6.550;2022-08-02T10:58:25;28.00;94.50
61916;DHT22;47868;51.326;6.550;2022-08-02T11:00:53;28.10;93.80
61916;DHT22;47868;51.326;6.550;2022-08-02T11:06:13;28.30;93.30
61916;DHT22;47868;51.326;6.550;2022-08-02T11:08:39;28.40;90.70
61916;DHT22;47868;51.326;6.550;2022-08-02T11:22:10;28.90;88.80
61916;DHT22;47868;51.326;6.550;2022-08-02T11:24:37;29.30;88.10
61916;DHT22;47868;51.326;6.550;2022-08-02T11:27:08;29.70;87.20
61916;DHT22;47868;51.326;6.550;2022-08-02T11:29:43;29.70;82.20
61916;DHT22;47868;51.326;6.550;2022-08-02T11:32:22;29.70;78.80
61916;DHT22;47868;51.326;6.550;2022-08-02T11:34:50;29.90;79.70
61916;DHT22;47868;51.326;6.550;2022-08-02T11:37:34;30.50;78.40
61916;DHT22;47868;51.326;6.550;2022-08-02T11:40:02;31.10;74.80
61916;DHT22;47868;51.326;6.550;2022-08-02T11:42:39;31.40;68.70
61916;DHT22;47868;51.326;6.550;2022-08-02T11:45:08;31.20;68.70
61916;DHT22;47868;51.326;6.550;2022-08-02T11:47:44;31.10;68.70
61916;DHT22;47868;51.326;6.550;2022-08-02T11:50:14;31.20;69.90
61916;DHT22;47868;51.326;6.550;2022-08-02T11:52:41;31.20;67.00
61916;DHT22;47868;51.326;6.550;2022-08-02T11:55:09;31.20;67.40
61916;DHT22;47868;51.326;6.550;2022-08-02T11:57:36;31.20;67.00
61916;DHT22;47868;51.326;6.550;2022-08-02T12:00:13;31.00;67.30
61916;DHT22;47868;51.326;6.550;2022-08-02T12:02:44;31.10;67.50
61916;DHT22;47868;51.326;6.550;2022-08-02T12:05:16;31.10;66.50
61916;DHT22;47868;51.326;6.550;2022-08-02T12:07:43;31.10;66.00
61916;DHT22;47868;51.326;6.550;2022-08-02T12:10:12;30.70;65.50
61916;DHT22;47868;51.326;6.550;2022-08-02T12:12:48;31.10;65.20
61916;DHT22;47868;51.326;6.550;2022-08-02T12:15:31;32.10;64.30
61916;DHT22;47868;51.326;6.550;2022-08-02T12:17:57;32.50;61.00
61916;DHT22;47868;51.326;6.550;2022-08-02T12:20:42;32.60;60.80
61916;DHT22;47868;51.326;6.550;2022-08-02T19:10:32;28.30;54.30
61916;DHT22;47868;51.326;6.550;2022-08-02T19:13:01;28.10;54.80
61916;DHT22;47868;51.326;6.550;2022-08-02T19:15:27;28.00;55.00
61916;DHT22;47868;51.326;6.550;2022-08-02T19:17:52;27.90;55.20
61916;DHT22;47868;51.326;6.550;2022-08-02T19:20:19;27.90;55.30
61916;DHT22;47868;51.326;6.550;2022-08-02T19:22:44;27.90;56.10
61916;DHT22;47868;51.326;6.550;2022-08-02T19:25:10;27.80;56.40
61916;DHT22;47868;51.326;6.550;2022-08-02T19:27:36;27.80;56.50
61916;DHT22;47868;51.326;6.550;2022-08-02T19:30:03;27.70;56.50
61916;DHT22;47868;51.326;6.550;2022-08-02T19:32:30;27.70;56.90
61916;DHT22;47868;51.326;6.550;2022-08-02T19:35:00;27.60;57.30
61916;DHT22;47868;51.326;6.550;2022-08-02T19:49:37;27.40;60.90
61916;DHT22;47868;51.326;6.550;2022-08-02T19:52:03;27.40;62.60
61916;DHT22;47868;51.326;6.550;2022-08-02T19:54:29;27.30;62.70
61916;DHT22;47868;51.326;6.550;2022-08-02T19:56:55;27.30;64.00
61916;DHT22;47868;51.326;6.550;2022-08-02T19:59:21;27.20;63.70
61916;DHT22;47868;51.326;6.550;2022-08-02T20:04:15;27.10;64.20
61916;DHT22;47868;51.326;6.550;2022-08-02T20:06:42;27.10;65.10
61916;DHT22;47868;51.326;6.550;2022-08-02T20:14:05;27.00;65.70
61916;DHT22;47868;51.326;6.550;2022-08-02T20:16:33;26.90;65.60
61916;DHT22;47868;51.326;6.550;2022-08-02T20:31:08;26.60;71.10
61916;DHT22;47868;51.326;6.550;2022-08-02T20:33:35;26.60;70.90
61916;DHT22;47868;51.326;6.550;2022-08-02T20:36:01;26.50;71.30
61916;DHT22;47868;51.326;6.550;2022-08-02T20:38:28;26.50;72.80
61916;DHT22;47868;51.326;6.550;2022-08-02T20:40:54;26.50;75.40
61916;DHT22;47868;51.326;6.550;2022-08-02T20:43:19;26.50;76.10
61916;DHT22;47868;51.326;6.550;2022-08-02T20:45:45;26.50;77.10
61916;DHT22;47868;51.326;6.550;2022-08-02T20:48:11;26.40;78.60
61916;DHT22;47868;51.326;6.550;2022-08-02T20:55:43;26.30;83.30
61916;DHT22;47868;51.326;6.550;2022-08-02T20:58:10;26.30;88.20
61916;DHT22;47868;51.326;6.550;2022-08-02T21:05:30;26.20;92.30
61916;DHT22;47868;51.326;6.550;2022-08-02T21:12:50;26.10;94.50
61916;DHT22;47868;51.326;6.550;2022-08-02T21:22:34;25.80;94.30
61916;DHT22;47868;51.326;6.550;2022-08-02T21:25:00;25.80;94.70
61916;DHT22;47868;51.326;6.550;2022-08-02T21:32:20;25.70;99.00
61916;DHT22;47868;51.326;6.550;2022-08-02T21:39:38;25.70;98.80
61916;DHT22;47868;51.326;6.550;2022-08-02T21:49:24;25.50;99.70
61916;DHT22;47868;51.326;6.550;2022-08-02T21:51:50;25.50;99.90
61916;DHT22;47868;51.326;6.550;2022-08-02T21:54:18;25.50;99.90
61916;DHT22;47868;51.326;6.550;2022-08-02T21:56:43;25.50;99.90
61916;DHT22;47868;51.326;6.550;2022-08-02T21:59:09;25.40;99.90
61916;DHT22;47868;51.326;6.550;2022-08-02T22:01:35;25.30;99.90
61916;DHT22;47868;51.326;6.550;2022-08-02T22:04:00;26.10;99.90
61916;DHT22;47868;51.326;6.550;2022-08-02T22:06:26;25.30;99.90
61916;DHT22;47868;51.326;6.550;2022-08-02T22:08:51;25.30;99.90
61916;DHT22;47868;51.326;6.550;2022-08-02T22:11:17;25.20;99.90
61916;DHT22;47868;51.326;6.550;2022-08-02T22:13:43;25.30;99.90
61916;DHT22;47868;51.326;6.550;2022-08-02T22:16:10;25.20;99.90
61916;DHT22;47868;51.326;6.550;2022-08-02T22:18:36;25.20;99.90
61916;DHT22;47868;51.326;6.550;2022-08-02T22:21:02;25.10;99.90
61916;DHT22;47868;51.326;6.550;2022-08-02T22:23:28;25.10;99.90
61916;DHT22;47868;51.326;6.550;2022-08-02T22:25:53;25.10;99.90
61916;DHT22;47868;51.326;6.550;2022-08-02T22:28:19;25.10;99.90
61916;DHT22;47868;51.326;6.550;2022-08-02T22:30:45;25.00;99.90
61916;DHT22;47868;51.326;6.550;2022-08-02T22:33:11;25.00;99.90
61916;DHT22;47868;51.326;6.550;2022-08-02T22:35:56;25.00;99.90
61916;DHT22;47868;51.326;6.550;2022-08-02T22:38:21;25.00;99.90
61916;DHT22;47868;51.326;6.550;2022-08-02T22:40:48;24.90;99.90
61916;DHT22;47868;51.326;6.550;2022-08-02T22:43:15;24.90;99.90
61916;DHT22;47868;51.326;6.550;2022-08-02T22:45:42;24.90;99.90
61916;DHT22;47868;51.326;6.550;2022-08-02T22:48:08;24.90;99.90
61916;DHT22;47868;51.326;6.550;2022-08-02T22:50:34;24.80;99.90
61916;DHT22;47868;51.326;6.550;2022-08-02T22:53:00;24.80;99.90
61916;DHT22;47868;51.326;6.550;2022-08-02T22:55:26;24.80;99.90
61916;DHT22;47868;51.326;6.550;2022-08-02T22:57:52;24.70;99.90
61916;DHT22;47868;51.326;6.550;2022-08-02T23:00:18;24.80;99.90
61916;DHT22;47868;51.326;6.550;2022-08-02T23:02:44;24.70;99.90
61916;DHT22;47868;51.326;6.550;2022-08-02T23:05:10;24.70;99.90
61916;DHT22;47868;51.326;6.550;2022-08-02T23:07:35;24.70;99.90
61916;DHT22;47868;51.326;6.550;2022-08-02T23:10:01;24.70;99.90
61916;DHT22;47868;51.326;6.550;2022-08-02T23:12:30;24.60;99.90
61916;DHT22;47868;51.326;6.550;2022-08-02T23:14:56;24.60;99.90
61916;DHT22;47868;51.326;6.550;2022-08-02T23:17:22;24.60;99.90
61916;DHT22;47868;51.326;6.550;2022-08-02T23:20:07;24.50;99.90
61916;DHT22;47868;51.326;6.550;2022-08-02T23:22:34;24.50;99.90
61916;DHT22;47868;51.326;6.550;2022-08-02T23:25:00;24.50;99.90
61916;DHT22;47868;51.326;6.550;2022-08-02T23:27:27;24.40;99.90
61916;DHT22;47868;51.326;6.550;2022-08-02T23:29:53;24.50;99.90
61916;DHT22;47868;51.326;6.550;2022-08-02T23:32:19;24.40;99.90
61916;DHT22;47868;51.326;6.550;2022-08-02T23:34:44;24.30;99.90
61916;DHT22;47868;51.326;6.550;2022-08-02T23:37:10;24.30;99.90
61916;DHT22;47868;51.326;6.550;2022-08-02T23:39:36;24.30;99.90
61916;DHT22;47868;51.326;6.550;2022-08-02T23:42:02;24.30;99.90
61916;DHT22;47868;51.326;6.550;2022-08-02T23:44:28;24.30;99.90
61916;DHT22;47868;51.326;6.550;2022-08-02T23:46:56;24.20;99.90
61916;DHT22;47868;51.326;6.550;2022-08-02T23:49:22;24.20;99.90
61916;DHT22;47868;51.326;6.550;2022-08-02T23:51:49;24.20;99.90
61916;DHT22;47868;51.326;6.550;2022-08-02T23:54:16;24.20;99.90
61916;DHT22;47868;51.326;6.550;2022-08-02T23:56:42;24.10;99.90
61916;DHT22;47868;51.326;6.550;2022-08-02T23:59:08;24.10;99.90
